Time;durP1;ratioP1;P1;durP2;ratioP2;P2;SDS_P1;SDS_P2;PMS_P1;PMS_P2;Temp;Humidity;BMP_temperature;BMP_pressure;BME280_temperature;BME280_humidity;BME280_pressure;Samples;Min_cycle;Max_cycle;Signal;HPM_P1;HPM_P2
2023/07/25 00:01:06;;;;;;;6.63;4.27;;;14.60;99.90;;;;;;4778027;30;20215;-76
2023/07/25 00:03:32;;;;;;;7.13;4.37;;;14.70;99.90;;;;;;4824053;29;20206;-75
2023/07/25 00:06:03;;;;;;;10.43;4.67;;;14.70;99.90;;;;;;4812723;29;20410;-75
2023/07/25 00:08:30;;;;;;;9.43;3.80;;;14.80;99.90;;;;;;4789132;30;20417;-76
2023/07/25 00:10:55;;;;;;;5.97;4.03;;;14.80;99.90;;;;;;4768312;30;20485;-76
2023/07/25 00:13:21;;;;;;;6.67;3.40;;;14.70;99.90;;;;;;4788154;30;20430;-75
2023/07/25 00:15:46;;;;;;;6.37;4.43;;;14.80;99.90;;;;;;4756873;30;20192;-76
2023/07/25 00:18:12;;;;;;;6.07;4.33;;;14.90;99.90;;;;;;4760848;29;20485;-76
2023/07/25 00:20:38;;;;;;;5.53;4.73;;;14.90;99.90;;;;;;4772303;30;20238;-75
2023/07/25 00:23:03;;;;;;;5.07;3.60;;;15.00;99.90;;;;;;4788113;30;20283;-75
2023/07/25 00:25:29;;;;;;;8.17;4.30;;;15.10;99.90;;;;;;4781215;30;20196;-77
2023/07/25 00:27:55;;;;;;;7.70;4.70;;;15.10;99.90;;;;;;4757056;30;20188;-75
2023/07/25 00:30:20;;;;;;;5.90;4.00;;;15.20;99.90;;;;;;4757098;30;20286;-75
2023/07/25 00:32:46;;;;;;;7.87;5.07;;;15.30;99.90;;;;;;4795184;29;20223;-75
2023/07/25 00:35:12;;;;;;;10.27;4.60;;;15.30;99.90;;;;;;4814015;29;20191;-76
2023/07/25 00:37:38;;;;;;;4.00;3.60;;;15.30;99.90;;;;;;4771182;30;20474;-75
2023/07/25 00:40:04;;;;;;;5.60;3.87;;;15.30;99.90;;;;;;4756063;30;20220;-76
2023/07/25 00:42:30;;;;;;;8.67;4.70;;;15.30;99.90;;;;;;4802410;29;20221;-76
2023/07/25 00:44:55;;;;;;;7.70;5.23;;;15.40;99.90;;;;;;4806597;29;20432;-76
2023/07/25 00:47:22;;;;;;;3.67;3.37;;;15.40;99.90;;;;;;4793243;29;20244;-76
2023/07/25 00:49:49;;;;;;;5.70;4.20;;;15.40;99.90;;;;;;4792934;29;20225;-77
2023/07/25 00:52:16;;;;;;;5.07;3.93;;;15.40;99.90;;;;;;4771609;30;20718;-75
2023/07/25 00:54:47;;;;;;;4.30;3.33;;;15.40;99.90;;;;;;4770391;30;20457;-75
2023/07/25 00:57:15;;;;;;;9.10;5.10;;;15.40;99.90;;;;;;4769902;30;20426;-75
2023/07/25 00:59:40;;;;;;;8.30;3.93;;;15.40;99.90;;;;;;4787994;30;20468;-75
2023/07/25 01:02:06;;;;;;;9.27;4.80;;;15.40;99.90;;;;;;4788662;30;20500;-75
2023/07/25 01:04:32;;;;;;;5.50;4.13;;;15.30;99.90;;;;;;4783910;29;20191;-76
2023/07/25 01:06:59;;;;;;;6.87;3.90;;;15.30;99.90;;;;;;4800698;29;20190;-77
2023/07/25 01:09:38;;;;;;;8.23;4.07;;;15.30;99.90;;;;;;4775693;30;20238;-75
2023/07/25 01:12:07;;;;;;;7.60;4.13;;;15.20;99.90;;;;;;4770915;30;20429;-74
2023/07/25 01:14:34;;;;;;;7.27;3.87;;;15.30;99.90;;;;;;4762379;30;20488;-75
2023/07/25 01:17:05;;;;;;;5.00;3.73;;;15.20;99.90;;;;;;4785065;30;20430;-76
2023/07/25 01:19:34;;;;;;;4.47;3.23;;;15.20;99.90;;;;;;4757219;30;20457;-74
2023/07/25 01:22:00;;;;;;;5.13;3.73;;;15.20;99.90;;;;;;4760167;30;20431;-76
2023/07/25 01:24:26;;;;;;;6.93;4.23;;;15.10;99.90;;;;;;4776948;29;20432;-76
2023/07/25 01:26:51;;;;;;;4.60;3.77;;;15.10;99.90;;;;;;4776197;30;20218;-75
2023/07/25 01:29:17;;;;;;;5.40;4.10;;;15.10;99.90;;;;;;4795586;30;20494;-74
2023/07/25 01:31:42;;;;;;;4.30;3.90;;;15.10;99.90;;;;;;4790391;29;20208;-76
2023/07/25 01:34:08;;;;;;;6.03;3.30;;;15.00;99.90;;;;;;4799263;29;20220;-76
2023/07/25 01:36:34;;;;;;;3.57;3.17;;;15.00;99.90;;;;;;4778907;30;20195;-75
2023/07/25 01:38:59;;;;;;;4.90;3.63;;;15.10;99.90;;;;;;4794897;29;20217;-76
2023/07/25 01:41:25;;;;;;;4.03;3.50;;;15.10;99.90;;;;;;4788222;30;20207;-75
2023/07/25 01:43:51;;;;;;;4.13;3.60;;;15.00;99.90;;;;;;4795983;29;20230;-75
2023/07/25 01:46:16;;;;;;;4.43;4.03;;;15.00;99.90;;;;;;4780741;29;20183;-75
2023/07/25 01:48:42;;;;;;;6.73;3.90;;;15.00;99.90;;;;;;4828559;29;20193;-74
2023/07/25 01:51:11;;;;;;;9.20;3.63;;;15.00;99.90;;;;;;4813179;29;20210;-77
2023/07/25 01:53:36;;;;;;;7.30;4.27;;;15.00;99.90;;;;;;4804341;30;20199;-77
2023/07/25 01:56:02;;;;;;;8.63;4.30;;;14.90;99.90;;;;;;4793682;30;20439;-75
2023/07/25 01:58:28;;;;;;;4.00;3.30;;;14.90;99.90;;;;;;4795015;29;20260;-75
2023/07/25 02:01:00;;;;;;;6.73;3.90;;;14.90;99.90;;;;;;4811852;29;20618;-75
2023/07/25 02:03:26;;;;;;;9.10;4.17;;;14.80;99.90;;;;;;4800342;30;20217;-75
2023/07/25 02:05:52;;;;;;;5.23;3.33;;;14.80;99.90;;;;;;4778659;30;20409;-76
2023/07/25 02:08:18;;;;;;;4.27;3.50;;;14.80;99.90;;;;;;4783881;29;20446;-75
2023/07/25 02:10:43;;;;;;;6.33;4.97;;;14.70;99.90;;;;;;4797904;30;20219;-75
2023/07/25 02:13:09;;;;;;;6.20;3.57;;;14.70;99.90;;;;;;4784808;29;20194;-76
2023/07/25 02:15:36;;;;;;;6.37;3.80;;;14.60;99.90;;;;;;4813426;29;20193;-76
2023/07/25 02:18:02;;;;;;;5.73;4.57;;;14.70;99.90;;;;;;4780654;30;20224;-74
2023/07/25 02:20:32;;;;;;;4.20;3.73;;;14.60;99.90;;;;;;4776065;30;20460;-74
2023/07/25 02:22:59;;;;;;;4.73;4.23;;;14.70;99.90;;;;;;4791657;30;20438;-74
2023/07/25 02:25:26;;;;;;;6.87;4.80;;;14.70;99.90;;;;;;4793586;30;20454;-75
2023/07/25 02:27:51;;;;;;;6.90;4.60;;;14.70;99.90;;;;;;4779981;30;20713;-75
2023/07/25 02:30:17;;;;;;;6.20;4.67;;;14.70;99.90;;;;;;4796054;29;20460;-75
2023/07/25 02:32:43;;;;;;;6.53;4.90;;;14.60;99.90;;;;;;4813688;29;20431;-76
2023/07/25 02:35:09;;;;;;;6.57;4.80;;;14.70;99.90;;;;;;4811861;29;20184;-75
2023/07/25 02:37:34;;;;;;;6.90;4.80;;;14.70;99.90;;;;;;4796972;29;20257;-75
2023/07/25 02:40:00;;;;;;;9.07;5.20;;;14.70;99.90;;;;;;4785182;30;20283;-75
2023/07/25 02:42:26;;;;;;;5.63;4.03;;;14.60;99.90;;;;;;4788998;30;20238;-76
2023/07/25 02:44:51;;;;;;;11.50;5.50;;;14.60;99.90;;;;;;4813629;29;20266;-75
2023/07/25 02:47:17;;;;;;;7.40;5.77;;;14.60;99.90;;;;;;4794291;29;20190;-76
2023/07/25 02:49:43;;;;;;;5.97;5.07;;;14.50;99.90;;;;;;4808740;29;20214;-76
2023/07/25 02:52:08;;;;;;;9.43;5.97;;;14.50;99.90;;;;;;4773927;30;20196;-76
2023/07/25 02:54:34;;;;;;;8.83;5.77;;;14.50;99.90;;;;;;4788490;30;20188;-75
2023/07/25 02:57:00;;;;;;;7.03;6.23;;;14.50;99.90;;;;;;4764524;30;20195;-74
2023/07/25 02:59:25;;;;;;;11.23;6.00;;;14.40;99.90;;;;;;4773435;30;20247;-77
2023/07/25 03:01:51;;;;;;;6.60;6.00;;;14.40;99.90;;;;;;4784298;29;20194;-76
2023/07/25 03:04:17;;;;;;;10.40;6.63;;;14.40;99.90;;;;;;4809346;29;20209;-76
2023/07/25 03:06:42;;;;;;;7.80;5.57;;;14.30;99.90;;;;;;4803120;30;20187;-76
2023/07/25 03:09:08;;;;;;;7.67;5.20;;;14.30;99.90;;;;;;4796248;29;20194;-76
2023/07/25 03:11:34;;;;;;;7.37;5.70;;;14.30;99.90;;;;;;4793725;29;20216;-75
2023/07/25 03:13:59;;;;;;;6.93;5.30;;;14.30;99.90;;;;;;4794892;29;20197;-75
2023/07/25 03:16:25;;;;;;;11.50;5.10;;;14.30;99.90;;;;;;4795356;29;20175;-75
2023/07/25 03:18:51;;;;;;;13.63;5.60;;;14.30;99.90;;;;;;4810965;29;20218;-75
2023/07/25 03:21:17;;;;;;;6.83;4.57;;;14.30;99.90;;;;;;4775512;30;20510;-75
2023/07/25 03:23:42;;;;;;;5.77;4.97;;;14.20;99.90;;;;;;4777134;30;20200;-75
2023/07/25 03:26:08;;;;;;;6.60;4.57;;;14.20;99.90;;;;;;4790850;30;20226;-75
2023/07/25 03:28:34;;;;;;;9.40;5.33;;;14.20;99.90;;;;;;4792137;29;20191;-75
2023/07/25 03:31:00;;;;;;;7.37;5.40;;;14.20;99.90;;;;;;4795403;29;20240;-76
2023/07/25 03:33:27;;;;;;;8.27;6.47;;;14.20;99.90;;;;;;4806765;30;20229;-75
2023/07/25 03:35:54;;;;;;;6.43;5.50;;;14.20;99.90;;;;;;4807661;30;20413;-76
2023/07/25 03:38:19;;;;;;;9.43;5.83;;;14.20;99.90;;;;;;4776216;30;20464;-75
2023/07/25 03:40:45;;;;;;;10.43;6.50;;;14.20;99.90;;;;;;4790983;30;20457;-75
2023/07/25 03:43:12;;;;;;;8.27;6.00;;;14.20;99.90;;;;;;4773627;30;20236;-75
2023/07/25 03:45:38;;;;;;;12.30;6.23;;;14.20;99.90;;;;;;4792657;29;20202;-75
2023/07/25 03:48:08;;;;;;;12.30;7.20;;;14.20;99.90;;;;;;4793648;29;20416;-77
2023/07/25 03:50:34;;;;;;;6.90;5.40;;;14.20;99.90;;;;;;4773795;30;20525;-76
2023/07/25 03:53:01;;;;;;;5.17;4.60;;;14.20;99.90;;;;;;4773590;29;20453;-76
2023/07/25 03:55:27;;;;;;;6.80;5.13;;;14.20;99.90;;;;;;4808152;29;20190;-75
2023/07/25 03:57:53;;;;;;;5.87;5.17;;;14.30;99.90;;;;;;4809960;29;20494;-75
2023/07/25 04:00:19;;;;;;;6.33;5.40;;;14.30;99.90;;;;;;4787647;30;20219;-77
2023/07/25 04:02:46;;;;;;;8.83;5.20;;;14.40;99.90;;;;;;4771605;29;20266;-76
2023/07/25 04:05:12;;;;;;;7.73;5.57;;;14.40;99.90;;;;;;4813682;29;20423;-76
2023/07/25 04:07:38;;;;;;;6.23;5.43;;;14.40;99.90;;;;;;4797520;29;20262;-76
2023/07/25 04:10:04;;;;;;;6.73;5.33;;;14.50;99.90;;;;;;4784637;30;20218;-74
2023/07/25 04:12:30;;;;;;;6.00;4.47;;;14.50;99.90;;;;;;4788177;30;20194;-76
2023/07/25 04:14:56;;;;;;;6.97;5.70;;;14.60;99.90;;;;;;4773903;30;20457;-76
2023/07/25 04:17:22;;;;;;;7.00;5.30;;;14.60;99.90;;;;;;4798672;30;20210;-76
2023/07/25 04:19:47;;;;;;;6.17;4.90;;;14.60;99.90;;;;;;4776756;30;20234;-77
2023/07/25 04:22:13;;;;;;;7.13;4.80;;;14.50;99.90;;;;;;4801557;29;20183;-76
2023/07/25 04:24:38;;;;;;;5.30;4.80;;;14.50;99.90;;;;;;4809848;29;20191;-75
2023/07/25 04:27:05;;;;;;;5.93;4.90;;;14.50;99.90;;;;;;4781790;30;20188;-77
2023/07/25 04:29:30;;;;;;;7.67;5.30;;;14.50;99.90;;;;;;4775549;30;20261;-78
2023/07/25 04:31:56;;;;;;;6.43;5.17;;;14.50;99.90;;;;;;4778505;29;20416;-76
2023/07/25 04:34:22;;;;;;;9.70;5.47;;;14.40;99.90;;;;;;4776848;30;20198;-75
2023/07/25 04:36:48;;;;;;;5.43;4.93;;;14.40;99.90;;;;;;4789962;30;20460;-75
2023/07/25 04:39:14;;;;;;;10.10;6.37;;;14.50;99.90;;;;;;4773489;29;20230;-75
2023/07/25 04:41:40;;;;;;;9.50;6.50;;;14.50;99.90;;;;;;4779173;30;20210;-75
2023/07/25 04:44:06;;;;;;;6.70;6.00;;;14.50;99.90;;;;;;4793977;29;20471;-76
2023/07/25 04:46:32;;;;;;;7.47;6.77;;;14.60;99.90;;;;;;4811041;29;20167;-75
2023/07/25 04:48:58;;;;;;;10.07;5.30;;;14.70;99.90;;;;;;4811439;29;20468;-77
2023/07/25 04:51:24;;;;;;;7.20;5.80;;;14.70;99.90;;;;;;4779900;30;20194;-76
2023/07/25 04:53:50;;;;;;;13.73;6.07;;;14.80;99.90;;;;;;4760377;30;20251;-77
2023/07/25 04:56:16;;;;;;;7.60;5.60;;;15.00;99.90;;;;;;4762880;29;20208;-76
2023/07/25 04:58:43;;;;;;;11.93;6.73;;;15.10;99.90;;;;;;4811193;29;20470;-76
2023/07/25 05:01:09;;;;;;;7.67;6.10;;;15.30;99.90;;;;;;4810085;29;20468;-75
2023/07/25 05:03:35;;;;;;;7.63;6.60;;;15.40;99.90;;;;;;4809155;29;20447;-76
2023/07/25 05:06:01;;;;;;;8.00;5.87;;;15.50;99.90;;;;;;4811315;29;20428;-75
2023/07/25 05:08:27;;;;;;;11.67;5.90;;;15.70;99.90;;;;;;4797101;29;20214;-75
2023/07/25 05:10:54;;;;;;;9.77;6.97;;;15.90;99.90;;;;;;4773669;30;20457;-76
2023/07/25 05:13:20;;;;;;;17.97;7.20;;;16.10;99.90;;;;;;4748202;30;20419;-75
2023/07/25 05:15:46;;;;;;;9.50;6.07;;;16.20;99.90;;;;;;4761606;30;20464;-76
2023/07/25 05:18:12;;;;;;;12.40;7.70;;;16.60;99.90;;;;;;4779901;30;20221;-75
2023/07/25 05:20:49;;;;;;;7.10;5.70;;;17.00;99.90;;;;;;4780174;30;20195;-78
2023/07/25 05:23:15;;;;;;;9.37;6.23;;;17.40;99.90;;;;;;4780210;30;20194;-76
2023/07/25 05:25:41;;;;;;;11.00;6.13;;;17.90;99.90;;;;;;4798835;29;20479;-77
2023/07/25 05:28:06;;;;;;;7.37;5.27;;;18.30;99.90;;;;;;4812892;29;20200;-76
2023/07/25 05:30:34;;;;;;;6.63;5.10;;;18.40;99.90;;;;;;4797987;29;20434;-76
2023/07/25 05:33:00;;;;;;;8.97;4.53;;;18.20;99.90;;;;;;4813489;29;20182;-76
2023/07/25 05:35:25;;;;;;;7.07;5.50;;;17.90;99.90;;;;;;4797181;30;20494;-76
2023/07/25 05:37:51;;;;;;;6.63;4.20;;;17.60;99.90;;;;;;4794438;30;20210;-75
2023/07/25 05:40:17;;;;;;;4.80;3.60;;;17.30;99.90;;;;;;4787625;30;20320;-76
2023/07/25 05:42:43;;;;;;;5.00;3.40;;;17.00;99.90;;;;;;4762006;30;20477;-76
2023/07/25 05:45:09;;;;;;;6.30;4.20;;;16.80;99.90;;;;;;4794061;29;20184;-76
2023/07/25 05:47:35;;;;;;;5.57;3.13;;;16.70;99.90;;;;;;4813537;29;20171;-76
2023/07/25 05:50:05;;;;;;;9.20;4.43;;;16.70;99.90;;;;;;4812606;29;20461;-77
2023/07/25 05:52:31;;;;;;;3.80;3.37;;;16.70;99.90;;;;;;4793460;29;20493;-76
2023/07/25 05:54:57;;;;;;;6.83;3.70;;;16.70;99.90;;;;;;4788730;30;20431;-76
2023/07/25 05:57:23;;;;;;;9.83;3.57;;;16.60;99.90;;;;;;4785380;30;20190;-76
2023/07/25 05:59:49;;;;;;;3.73;3.30;;;16.60;99.90;;;;;;4761943;30;20455;-77
2023/07/25 06:02:16;;;;;;;9.90;3.83;;;16.60;99.90;;;;;;4724184;30;20175;-77
2023/07/25 06:04:48;;;;;;;8.67;3.43;;;16.60;99.90;;;;;;4724209;30;20425;-77
2023/07/25 06:07:16;;;;;;;5.07;3.20;;;16.60;99.90;;;;;;4723336;30;20442;-78
2023/07/25 06:09:43;;;;;;;4.03;2.90;;;16.60;99.90;;;;;;4709419;30;20476;-77
2023/07/25 06:12:10;;;;;;;8.83;3.20;;;16.60;99.90;;;;;;4676098;30;20454;-76
2023/07/25 06:14:38;;;;;;;5.47;3.40;;;16.70;99.90;;;;;;4677956;30;20521;-76
2023/07/25 06:17:05;;;;;;;7.80;2.90;;;16.70;99.90;;;;;;4692292;30;20453;-76
2023/07/25 06:19:31;;;;;;;5.33;3.77;;;16.80;99.90;;;;;;4678693;30;20482;-77
2023/07/25 06:21:58;;;;;;;8.73;3.63;;;16.80;99.90;;;;;;4663963;30;20443;-77
2023/07/25 06:24:29;;;;;;;5.13;3.00;;;16.80;99.90;;;;;;4677537;30;20447;-77
2023/07/25 06:26:55;;;;;;;3.80;2.50;;;16.70;99.90;;;;;;4677971;30;20435;-77
2023/07/25 06:29:33;;;;;;;6.10;3.83;;;16.80;99.90;;;;;;4678953;30;20448;-77
2023/07/25 06:32:18;;;;;;;3.67;3.03;;;16.80;99.90;;;;;;4693365;30;20239;-76
2023/07/25 06:34:47;;;;;;;7.53;2.83;;;16.70;99.90;;;;;;4692988;30;20430;-77
2023/07/25 06:37:26;;;;;;;6.20;3.37;;;16.70;99.90;;;;;;4692642;30;20433;-77
2023/07/25 06:40:00;;;;;;;6.07;3.10;;;16.60;99.90;;;;;;4723140;30;20447;-75
2023/07/25 06:42:29;;;;;;;7.80;3.73;;;16.70;99.90;;;;;;4747530;30;20489;-76
2023/07/25 06:44:58;;;;;;;6.97;3.97;;;16.80;99.90;;;;;;4747575;30;20448;-78
2023/07/25 06:47:37;;;;;;;7.57;3.60;;;16.80;99.90;;;;;;4777801;30;20467;-77
2023/07/25 06:50:04;;;;;;;5.00;2.80;;;16.90;99.90;;;;;;4808959;24;20480;-78
2023/07/25 06:52:31;;;;;;;3.37;2.50;;;17.00;99.90;;;;;;4801289;29;20440;-78
2023/07/25 06:54:58;;;;;;;5.47;3.23;;;17.10;99.90;;;;;;4801694;29;20648;-78
2023/07/25 06:57:33;;;;;;;5.73;3.57;;;17.20;99.90;;;;;;4817358;29;20402;-76
2023/07/25 06:59:59;;;;;;;4.67;3.10;;;17.30;99.90;;;;;;4798184;29;20466;-77
2023/07/25 07:02:34;;;;;;;5.30;2.43;;;17.30;99.90;;;;;;4799158;29;20428;-77
2023/07/25 07:05:29;;;;;;;7.10;2.70;;;17.20;99.90;;;;;;4781841;29;20422;-78
2023/07/25 07:07:55;;;;;;;5.50;2.70;;;17.10;99.90;;;;;;4776331;30;20455;-76
2023/07/25 07:13:12;;;;;;;5.90;2.27;;;17.20;99.90;;;;;;5171802;24;20511;-75
2023/07/25 07:15:38;;;;;;;6.00;2.50;;;17.30;99.90;;;;;;4817770;29;20447;-76
2023/07/25 07:18:06;;;;;;;5.00;2.83;;;17.30;99.90;;;;;;4834464;29;20538;-78
2023/07/25 07:20:35;;;;;;;4.77;2.40;;;17.40;99.90;;;;;;4800326;29;20439;-75
2023/07/25 07:25:50;;;;;;;4.47;2.43;;;17.70;99.90;;;;;;4946015;24;20482;-78
2023/07/25 07:28:17;;;;;;;6.50;3.20;;;17.80;99.80;;;;;;4762934;30;20514;-75
2023/07/25 07:30:54;;;;;;;9.30;3.10;;;18.00;97.10;;;;;;4765790;29;20811;-77
2023/07/25 07:33:23;;;;;;;4.53;2.70;;;18.20;93.40;;;;;;4757485;30;20440;-76
2023/07/25 07:35:50;;;;;;;4.20;2.70;;;18.20;93.60;;;;;;4780436;30;20425;-76
2023/07/25 07:38:22;;;;;;;5.13;2.30;;;18.20;91.40;;;;;;4765618;30;20472;-77
2023/07/25 07:40:59;;;;;;;6.00;2.17;;;18.20;89.80;;;;;;4768718;29;20464;-77
2023/07/25 07:43:26;;;;;;;6.80;2.43;;;18.20;87.50;;;;;;4774776;29;20449;-77
2023/07/25 07:45:58;;;;;;;8.67;2.30;;;18.20;87.50;;;;;;4797920;29;20439;-78
2023/07/25 07:48:26;;;;;;;5.50;2.40;;;18.30;88.70;;;;;;4754147;30;20421;-76
2023/07/25 07:50:54;;;;;;;6.17;2.40;;;18.40;86.40;;;;;;4783288;29;20479;-76
2023/07/25 07:53:22;;;;;;;3.80;2.00;;;18.60;84.30;;;;;;4797913;29;20445;-78
2023/07/25 07:55:51;;;;;;;4.63;2.73;;;18.50;82.30;;;;;;4779507;29;20450;-77
2023/07/25 07:58:40;;;;;;;4.20;2.07;;;18.40;81.70;;;;;;4780789;29;20461;-77
2023/07/25 08:01:30;;;;;;;4.47;2.50;;;18.60;81.50;;;;;;4753987;29;20476;-76
2023/07/25 08:09:54;;;;;;;6.50;3.10;;;18.80;77.50;;;;;;5230850;24;20460;-76
2023/07/25 08:12:37;;;;;;;12.17;2.70;;;18.90;75.80;;;;;;4759632;29;20423;-77
2023/07/25 08:15:27;;;;;;;6.93;2.80;;;18.90;75.50;;;;;;4793361;30;20504;-76
2023/07/25 08:17:57;;;;;;;10.90;2.80;;;18.90;75.90;;;;;;4779534;30;20485;-77
2023/07/25 08:20:30;;;;;;;2.90;1.90;;;18.90;75.70;;;;;;4771913;30;20495;-77
2023/07/25 08:26:05;;;;;;;5.50;3.30;;;19.10;73.40;;;;;;4820980;29;20458;-76
2023/07/25 08:28:36;;;;;;;7.93;2.50;;;19.20;71.70;;;;;;4771190;29;20422;-76
2023/07/25 08:34:01;;;;;;;4.37;2.40;;;19.10;70.90;;;;;;5377288;24;20482;-77
2023/07/25 08:36:56;;;;;;;6.80;2.90;;;18.90;71.00;;;;;;4807177;29;20447;-78
2023/07/25 08:40:00;;;;;;;5.90;2.50;;;18.80;73.00;;;;;;4805353;29;20489;-77
2023/07/25 08:42:51;;;;;;;4.37;2.40;;;18.50;73.10;;;;;;4800380;29;20444;-78
2023/07/25 08:45:26;;;;;;;5.17;2.23;;;18.40;75.00;;;;;;4801024;29;20452;-78
2023/07/25 08:48:01;;;;;;;5.87;2.60;;;18.20;74.30;;;;;;4797096;29;20434;-76
2023/07/25 08:50:38;;;;;;;6.80;2.40;;;18.20;75.20;;;;;;4797289;29;20501;-79
2023/07/25 08:56:35;;;;;;;6.07;2.87;;;18.20;72.30;;;;;;5165790;24;20515;-79
2023/07/25 08:59:09;;;;;;;5.80;2.77;;;18.50;71.90;;;;;;4795549;29;20476;-78
2023/07/25 09:02:08;;;;;;;6.13;2.00;;;18.70;71.20;;;;;;4755662;29;20436;-78
2023/07/25 09:15:34;;;;;;;4.67;2.00;;;20.20;63.70;;;;;;3137585;28;20485;-78
2023/07/25 09:23:27;;;;;;;5.27;2.20;;;20.00;60.20;;;;;;4893419;24;20564;-79
2023/07/25 09:55:55;;;;;;;6.47;2.60;;;18.40;68.40;;;;;;5340086;24;20472;-77
2023/07/25 09:58:35;;;;;;;4.20;2.67;;;18.40;69.30;;;;;;4772018;29;20482;-80
2023/07/25 10:04:12;;;;;;;8.33;2.20;;;18.30;69.30;;;;;;4863834;24;20492;-80
2023/07/25 10:30:52;;;;;;;9.60;2.13;;;18.80;68.70;;;;;;5365842;24;20477;-77
2023/07/25 10:34:13;;;;;;;6.20;2.30;;;18.60;66.70;;;;;;4952017;24;21361;31
2023/07/25 10:37:19;;;;;;;3.60;2.40;;;18.60;68.10;;;;;;4765008;29;20461;-78
2023/07/25 10:52:02;;;;;;;5.30;3.07;;;18.30;68.60;;;;;;4640129;24;20499;-79
2023/07/25 10:57:22;;;;;;;6.27;2.27;;;18.70;66.60;;;;;;5059518;24;20488;-78
2023/07/25 11:17:48;;;;;;;5.40;3.80;;;19.60;61.30;;;;;;5051602;24;20503;31
2023/07/25 12:06:57;;;;;;;5.33;3.00;;;21.40;49.00;;;;;;5163672;24;20639;-76
2023/07/25 13:09:08;;;;;;;6.13;2.40;;;18.50;60.50;;;;;;5193148;24;20514;-78
2023/07/25 13:41:29;;;;;;;5.60;2.97;;;18.70;63.80;;;;;;5637524;24;20483;-77
2023/07/25 13:47:03;;;;;;;6.60;2.80;;;18.70;65.00;;;;;;5384518;24;20480;-77
2023/07/25 13:52:58;;;;;;;6.20;1.83;;;18.80;62.10;;;;;;5358241;24;20481;-79
2023/07/25 14:24:08;;;;;;;5.67;2.43;;;21.10;52.30;;;;;;5295740;24;20479;-78
2023/07/25 15:50:37;;;;;;;3.40;1.60;;;20.80;51.10;;;;;;5389412;24;20465;-78
2023/07/25 15:53:06;;;;;;;5.43;1.80;;;20.60;51.50;;;;;;4794978;29;20464;-79
2023/07/25 15:56:05;;;;;;;3.70;2.13;;;20.50;51.60;;;;;;4770940;30;20413;-80
2023/07/25 15:59:17;;;;;;;3.37;1.80;;;20.60;51.80;;;;;;4734769;30;20498;-80
2023/07/25 18:48:28;;;;;;;6.50;2.57;;;21.10;55.20;;;;;;5435801;24;20503;-77
2023/07/25 18:50:57;;;;;;;4.63;2.67;;;20.40;56.50;;;;;;4770161;29;20528;-79
2023/07/25 19:59:20;;;;;;;1.80;1.23;;;16.60;61.50;;;;;;5599855;24;20504;-78
2023/07/25 20:34:52;;;;;;;3.10;1.40;;;15.70;70.50;;;;;;5074735;24;20493;-77
2023/07/25 20:57:20;;;;;;;2.10;1.30;;;15.30;79.30;;;;;;5066281;24;20481;-79
2023/07/25 21:05:52;;;;;;;2.40;1.03;;;15.10;83.80;;;;;;5327711;24;20476;-78
2023/07/25 21:08:21;;;;;;;2.70;1.20;;;15.10;85.00;;;;;;4775181;30;20434;-77
2023/07/25 21:11:12;;;;;;;3.23;2.10;;;15.00;85.80;;;;;;4760144;30;20478;-79
2023/07/25 21:13:41;;;;;;;2.87;1.10;;;15.00;87.00;;;;;;4774712;30;20451;-78
2023/07/25 21:16:07;;;;;;;2.73;1.80;;;15.00;87.60;;;;;;4746241;30;20440;-78
2023/07/25 21:18:35;;;;;;;2.13;1.53;;;14.90;87.70;;;;;;4760424;30;20544;-77
2023/07/25 21:21:03;;;;;;;3.27;1.50;;;14.90;88.30;;;;;;4902511;24;20583;-77
2023/07/25 21:23:30;;;;;;;3.93;1.10;;;14.80;88.70;;;;;;4781705;30;20448;-78
2023/07/25 21:25:58;;;;;;;2.90;1.30;;;14.80;89.00;;;;;;4782625;29;20444;-78
2023/07/25 21:28:25;;;;;;;1.60;1.10;;;14.80;89.70;;;;;;4794827;30;20445;-76
2023/07/25 21:30:53;;;;;;;2.77;1.30;;;14.80;89.90;;;;;;4797456;29;20467;-77
2023/07/25 21:33:23;;;;;;;3.03;1.33;;;14.70;89.90;;;;;;4799387;29;20452;-77
2023/07/25 21:36:15;;;;;;;5.03;1.20;;;14.70;90.40;;;;;;4830298;29;20408;-77
2023/07/25 21:38:42;;;;;;;2.93;1.70;;;14.60;90.60;;;;;;4783291;29;20480;-76
2023/07/25 21:41:14;;;;;;;3.30;1.47;;;14.70;90.70;;;;;;4755507;30;20442;-77
2023/07/25 21:44:05;;;;;;;2.40;1.50;;;14.60;90.90;;;;;;4762560;30;20422;-78
2023/07/25 21:46:34;;;;;;;2.90;1.23;;;14.60;91.20;;;;;;4754413;30;20460;-78
2023/07/25 21:54:39;;;;;;;2.20;1.33;;;14.50;91.90;;;;;;5161281;24;20477;-78
2023/07/25 21:57:26;;;;;;;3.50;1.73;;;14.50;92.30;;;;;;4760637;30;20416;-80
2023/07/25 21:59:55;;;;;;;2.10;1.30;;;14.50;92.80;;;;;;4969605;24;20494;-75
2023/07/25 22:02:26;;;;;;;5.80;2.30;;;14.50;93.10;;;;;;4785797;30;20416;-77
2023/07/25 22:04:54;;;;;;;1.90;1.20;;;14.40;93.40;;;;;;4784426;29;20425;-76
2023/07/25 22:07:41;;;;;;;2.40;1.27;;;14.40;93.70;;;;;;4784746;29;20479;-79
2023/07/25 22:10:10;;;;;;;1.87;1.17;;;14.40;94.00;;;;;;4911648;24;20518;-77
2023/07/25 22:15:41;;;;;;;2.67;1.50;;;14.30;94.90;;;;;;4980786;24;20498;-77
2023/07/25 22:18:09;;;;;;;3.37;1.40;;;14.30;95.40;;;;;;4784720;29;20480;-79
2023/07/25 22:20:37;;;;;;;2.20;1.37;;;14.20;95.80;;;;;;4763182;30;20434;-76
2023/07/25 22:23:07;;;;;;;2.97;1.33;;;14.20;96.40;;;;;;4880834;24;20571;-75
2023/07/25 22:25:38;;;;;;;3.20;1.57;;;14.20;97.10;;;;;;4786295;29;20476;-76
2023/07/25 22:28:17;;;;;;;2.03;1.20;;;14.20;97.50;;;;;;4803131;29;20529;-77
2023/07/25 22:30:43;;;;;;;1.80;1.60;;;14.10;97.80;;;;;;4875867;24;20518;-75
2023/07/25 22:33:10;;;;;;;2.80;1.50;;;14.10;98.10;;;;;;4730744;30;20460;-77
2023/07/25 22:35:36;;;;;;;1.80;1.50;;;14.10;98.50;;;;;;4716350;30;20432;-76
2023/07/25 22:38:03;;;;;;;1.50;1.03;;;14.10;98.80;;;;;;4730725;30;20451;-76
2023/07/25 22:40:29;;;;;;;2.20;1.50;;;14.10;99.00;;;;;;4746259;30;20481;-77
2023/07/25 22:42:55;;;;;;;2.40;1.27;;;14.00;99.40;;;;;;4763306;30;20452;-77
2023/07/25 22:45:22;;;;;;;4.70;1.37;;;14.00;99.80;;;;;;4779978;30;20426;-76
2023/07/25 22:47:48;;;;;;;1.87;1.30;;;14.00;99.90;;;;;;4765410;30;20416;-76
2023/07/25 22:50:14;;;;;;;2.03;1.50;;;13.90;99.90;;;;;;4765260;30;20477;-76
2023/07/25 22:52:42;;;;;;;2.00;1.37;;;13.90;99.90;;;;;;4763888;30;20425;-76
2023/07/25 22:55:10;;;;;;;2.73;1.67;;;13.80;99.90;;;;;;4767794;30;20197;-75
2023/07/25 22:57:36;;;;;;;2.57;1.87;;;13.80;99.90;;;;;;4737299;30;20447;-76
2023/07/25 23:00:03;;;;;;;2.87;1.80;;;13.80;99.90;;;;;;4742953;30;20499;-76
2023/07/25 23:02:31;;;;;;;2.90;1.80;;;13.70;99.90;;;;;;4744241;30;20434;-76
2023/07/25 23:05:04;;;;;;;2.53;1.63;;;13.80;99.90;;;;;;4760240;30;20424;-76
2023/07/25 23:07:33;;;;;;;4.07;2.00;;;13.70;99.90;;;;;;4716096;30;20432;-76
2023/07/25 23:09:59;;;;;;;1.97;1.40;;;13.70;99.90;;;;;;4725990;30;20544;-76
2023/07/25 23:12:25;;;;;;;2.43;2.23;;;13.70;99.90;;;;;;4726785;30;20422;-75
2023/07/25 23:14:52;;;;;;;4.30;2.40;;;13.70;99.90;;;;;;4726214;30;20197;-76
2023/07/25 23:17:18;;;;;;;2.20;1.50;;;13.70;99.90;;;;;;4749437;30;20214;-77
2023/07/25 23:19:47;;;;;;;2.80;1.50;;;13.80;99.90;;;;;;4741752;30;20476;-77
2023/07/25 23:22:14;;;;;;;3.13;1.60;;;13.80;99.90;;;;;;4740407;30;20462;-76
2023/07/25 23:24:39;;;;;;;2.00;1.33;;;13.90;99.90;;;;;;4740711;30;20565;-75
2023/07/25 23:27:06;;;;;;;2.73;1.50;;;14.00;99.90;;;;;;4725654;30;20185;-76
2023/07/25 23:29:34;;;;;;;2.13;1.90;;;14.10;99.90;;;;;;4697560;30;20217;-76
2023/07/25 23:32:00;;;;;;;2.50;1.70;;;14.20;99.90;;;;;;4697106;30;20478;-75
2023/07/25 23:34:28;;;;;;;1.70;1.53;;;14.20;99.90;;;;;;4726184;30;20453;-75
2023/07/25 23:36:57;;;;;;;5.20;2.03;;;14.20;99.90;;;;;;4724468;30;20193;-76
2023/07/25 23:39:25;;;;;;;3.00;1.43;;;14.30;99.90;;;;;;4723615;30;20476;-76
2023/07/25 23:41:51;;;;;;;3.03;1.97;;;14.30;99.90;;;;;;4787840;30;20453;-75
2023/07/25 23:44:17;;;;;;;1.70;1.37;;;14.30;99.90;;;;;;4762737;30;20441;-75
2023/07/25 23:46:43;;;;;;;2.67;1.33;;;14.20;99.90;;;;;;4748307;30;20198;-77
2023/07/25 23:49:08;;;;;;;2.80;1.30;;;14.20;99.90;;;;;;4762595;30;20422;-77
2023/07/25 23:51:34;;;;;;;2.13;1.37;;;14.20;99.90;;;;;;4763356;30;20201;-77
2023/07/25 23:54:00;;;;;;;3.67;1.97;;;14.20;99.90;;;;;;4764835;30;20222;-76
2023/07/25 23:56:26;;;;;;;2.90;1.97;;;14.20;99.90;;;;;;4761583;30;20199;-76
2023/07/25 23:58:53;;;;;;;3.90;1.97;;;14.30;99.90;;;;;;4746156;30;20485;-76
